»·PEaware :: N909CH KTUS-KBLH

N909CH :: KTUS-KBLH

FLIGHT INFORMATION

Flight Status: Arrived
Operator: Privately registered:
United States
More flights under this callsign
Pilot: Jeremy H. (10741)
Aircraft: SOCATA TBM-900
(TBM9)
More flights by this aircraft type
Origin: KTUS Tucson Intl
United States
Destination: KBLH Blythe
United States
More flights between these airports :: More routes between these airports
Route: +WLDKT3 GBN SALOM
File this flight plan on PilotEdge
Remarks:
Altitude:
(Current/Filed)
30,000ft
Speed:
(Current/Filed)
230kts
Departed: 18-Feb-19 02:05 PM
Arrived: 18-Feb-19 03:10 PM
Distance/Time
Traveled:
210nm/1:05
Distance/Time
To Go:
Arrived

Flight Plot

Page will automatically refresh every two minutes.

Flight plan parsing failed; only flown route is shown


Map Options




Map Legend


Flown Route
Filed Route
Departure Airport
Arrival Airport
Navaid (VOR, NDB)
Fix

Horizontal Profiles

Position Reports

Time Latitude Longitude Heading Altitude Ground
Speed
18-Feb-19 13:40 32.127140 -110.943812 135 2570ft 0kts
18-Feb-19 13:41 32.127140 -110.943812 135 2570ft 0kts
18-Feb-19 13:42 32.127140 -110.943812 135 2570ft 0kts
18-Feb-19 13:43 32.127140 -110.943812 135 2570ft 0kts
18-Feb-19 13:43 32.127140 -110.943812 135 2570ft 0kts
18-Feb-19 13:45 32.127140 -110.943812 135 2570ft 0kts
18-Feb-19 13:46 32.127140 -110.943812 135 2570ft 0kts
18-Feb-19 13:47 32.127140 -110.943812 135 2570ft 0kts
18-Feb-19 13:47 32.127140 -110.943812 135 2570ft 0kts
18-Feb-19 13:48 32.127140 -110.943812 135 2570ft 0kts
18-Feb-19 13:50 32.127140 -110.943812 135 2570ft 0kts
18-Feb-19 13:50 32.127140 -110.943812 135 2570ft 0kts
18-Feb-19 13:51 32.127477 -110.943360 356 2570ft 6kts
18-Feb-19 13:52 32.126581 -110.945458 231 2569ft 8kts
18-Feb-19 13:53 32.124801 -110.947035 140 2572ft 8kts
18-Feb-19 13:54 32.122458 -110.944301 135 2582ft 12kts
18-Feb-19 13:55 32.119965 -110.941385 135 2592ft 12kts
18-Feb-19 13:56 32.117454 -110.938452 134 2600ft 13kts
18-Feb-19 13:57 32.114848 -110.935389 135 2611ft 13kts
18-Feb-19 13:58 32.112180 -110.932261 135 2619ft 12kts
18-Feb-19 13:59 32.109521 -110.929148 135 2627ft 13kts
18-Feb-19 14:00 32.106924 -110.926107 135 2636ft 13kts
18-Feb-19 14:01 32.104644 -110.923434 134 2647ft 8kts
18-Feb-19 14:02 32.102941 -110.922528 223 2649ft 0kts
18-Feb-19 14:03 32.102417 -110.923404 317 2647ft 0kts
18-Feb-19 14:04 32.118291 -110.941362 317 3135ft 157kts
18-Feb-19 14:05 32.152224 -110.984568 319 3135ft 175kts
18-Feb-19 14:06 32.185672 -111.021123 313 3215ft 170kts
18-Feb-19 14:07 32.220805 -111.062881 311 3202ft 184kts
18-Feb-19 14:08 32.230632 -111.112838 263 5198ft 122kts
18-Feb-19 14:09 32.208303 -111.141935 229 7287ft 123kts
18-Feb-19 14:10 32.184606 -111.170752 229 9155ft 122kts
18-Feb-19 14:11 32.199297 -111.202253 319 10777ft 144kts
18-Feb-19 14:12 32.229613 -111.232986 291 12223ft 143kts
18-Feb-19 14:13 32.251402 -111.273875 291 14303ft 150kts
18-Feb-19 14:14 32.272399 -111.314540 288 16922ft 146kts
18-Feb-19 14:15 32.293400 -111.355560 286 19178ft 147kts
18-Feb-19 14:16 32.314733 -111.397261 284 21650ft 148kts
18-Feb-19 14:17 32.336016 -111.438980 283 23867ft 149kts
18-Feb-19 14:18 32.357395 -111.480913 282 25835ft 149kts
18-Feb-19 14:19 32.378822 -111.522976 281 27590ft 149kts
18-Feb-19 14:20 32.400349 -111.565263 280 29118ft 151kts
18-Feb-19 14:21 32.422818 -111.609877 283 30070ft 184kts
18-Feb-19 14:22 32.453999 -111.671145 286 30079ft 241kts
18-Feb-19 14:23 32.490528 -111.743025 287 30072ft 264kts
18-Feb-19 14:24 32.529226 -111.819456 287 30076ft 272kts
18-Feb-19 14:25 32.568419 -111.897089 287 30077ft 275kts
18-Feb-19 14:26 32.607692 -111.975044 288 30074ft 276kts
18-Feb-19 14:27 32.647066 -112.053356 287 30073ft 276kts
18-Feb-19 14:28 32.686434 -112.131845 287 30071ft 276kts
18-Feb-19 14:29 32.725657 -112.210192 288 30063ft 276kts
18-Feb-19 14:30 32.764778 -112.288527 288 30057ft 276kts
18-Feb-19 14:31 32.804010 -112.367207 287 30051ft 276kts
18-Feb-19 14:32 32.841320 -112.442219 287 30051ft 275kts
18-Feb-19 14:33 32.880238 -112.520614 287 30051ft 275kts
18-Feb-19 14:34 32.919030 -112.598927 287 30021ft 275kts
18-Feb-19 14:35 32.957789 -112.677607 286 30038ft 273kts
18-Feb-19 14:36 32.994885 -112.756746 286 30035ft 274kts
18-Feb-19 14:37 33.032123 -112.836555 287 30036ft 274kts
18-Feb-19 14:38 33.069051 -112.915773 289 30032ft 272kts
18-Feb-19 14:39 33.105635 -112.994417 291 30026ft 270kts
18-Feb-19 14:40 33.141960 -113.072577 292 30025ft 268kts
18-Feb-19 14:41 33.178095 -113.150565 292 30024ft 267kts
18-Feb-19 14:42 33.213999 -113.228246 292 30023ft 267kts
18-Feb-19 14:43 33.249856 -113.306000 292 30022ft 266kts
18-Feb-19 14:44 33.285186 -113.382869 293 28479ft 260kts
18-Feb-19 14:45 33.319537 -113.457689 294 26737ft 254kts
18-Feb-19 14:46 33.353171 -113.531088 295 24982ft 248kts
18-Feb-19 14:47 33.386073 -113.602984 296 24029ft 246kts
18-Feb-19 14:48 33.419396 -113.675966 295 24041ft 249kts
18-Feb-19 14:49 33.451826 -113.747129 295 24040ft 235kts
18-Feb-19 14:50 33.481972 -113.813438 295 24042ft 217kts
18-Feb-19 14:51 33.509789 -113.874739 295 24044ft 202kts
18-Feb-19 14:52 33.522405 -113.937954 279 23696ft 204kts
18-Feb-19 14:53 33.531852 -114.012179 279 21683ft 235kts
18-Feb-19 14:54 33.541634 -114.089505 280 19570ft 234kts
18-Feb-19 14:55 33.551297 -114.166138 280 17460ft 233kts
18-Feb-19 14:56 33.560921 -114.242956 280 15342ft 232kts
18-Feb-19 14:57 33.570389 -114.318914 280 13227ft 229kts
18-Feb-19 14:58 33.579691 -114.394004 280 11116ft 227kts
18-Feb-19 14:59 33.588531 -114.465741 280 8987ft 207kts
18-Feb-19 15:00 33.596684 -114.532144 280 6864ft 198kts
18-Feb-19 15:01 33.602712 -114.595578 254 4897ft 199kts
18-Feb-19 15:02 33.552346 -114.618054 182 2752ft 216kts
18-Feb-19 15:03 33.506258 -114.638226 268 1204ft 165kts
18-Feb-19 15:04 33.503792 -114.681480 268 1219ft 123kts
18-Feb-19 15:05 33.517485 -114.707289 0 1227ft 84kts
18-Feb-19 15:06 33.540526 -114.710640 345 1221ft 99kts
18-Feb-19 15:07 33.572223 -114.715369 359 1213ft 122kts
18-Feb-19 15:08 33.601368 -114.716639 356 685ft 88kts
18-Feb-19 15:09 33.620958 -114.716747 359 397ft 35kts
18-Feb-19 15:10 33.629444 -114.716547 6 397ft 9kts
18-Feb-19 15:11 33.622911 -114.716779 180 397ft 30kts
18-Feb-19 15:12 33.616272 -114.716499 150 393ft 13kts
18-Feb-19 15:13 33.614873 -114.713972 119 393ft 9kts
18-Feb-19 15:14 33.614223 -114.713181 3 392ft 0kts
18-Feb-19 15:15 33.614223 -114.713181 3 392ft 0kts
18-Feb-19 15:16 33.614223 -114.713181 3 392ft 0kts
18-Feb-19 15:17 33.614223 -114.713181 3 392ft 0kts
18-Feb-19 15:18 33.614223 -114.713181 3 392ft 0kts
18-Feb-19 15:19 33.614223 -114.713181 3 392ft 0kts
18-Feb-19 15:20 33.614223 -114.713181 3 392ft 0kts
18-Feb-19 15:21 33.614223 -114.713181 3 392ft 0kts
18-Feb-19 15:22 33.614223 -114.713181 3 392ft 0kts
18-Feb-19 15:23 33.614223 -114.713181 3 392ft 0kts

Navigation Log

Ident Type
Flight plan parsing failed, navigation log unavailable